Time;durP1;ratioP1;P1;durP2;ratioP2;P2;SDS_P1;SDS_P2;PMS_P1;PMS_P2;Temp;Humidity;BMP_temperature;BMP_pressure;BME280_temperature;BME280_humidity;BME280_pressure;Samples;Min_cycle;Max_cycle;Signal;HPM_P1;HPM_P2
2021/06/13 00:01:29;;;;;;;12.30;11.10;;;25.40;69.60;;;;;;5081195;28;20099;-60
2021/06/13 00:03:55;;;;;;;13.57;12.18;;;25.50;69.60;;;;;;5079992;28;20050;-60
2021/06/13 00:06:21;;;;;;;11.80;10.60;;;25.40;69.50;;;;;;5081647;28;20096;-60
2021/06/13 00:08:47;;;;;;;11.52;10.43;;;25.40;69.20;;;;;;5080991;28;20044;-60
2021/06/13 00:11:13;;;;;;;11.90;10.80;;;25.40;69.10;;;;;;5079936;28;20047;-60
2021/06/13 00:13:40;;;;;;;14.05;12.65;;;25.40;69.00;;;;;;5082397;28;20027;-60
2021/06/13 00:16:06;;;;;;;15.95;14.38;;;25.40;68.90;;;;;;5080347;28;20120;-61
2021/06/13 00:18:33;;;;;;;19.00;17.17;;;25.40;68.80;;;;;;5080001;28;20020;-61
2021/06/13 00:20:59;;;;;;;19.67;17.67;;;25.50;69.50;;;;;;5081644;28;20103;-61
2021/06/13 00:23:25;;;;;;;19.80;18.00;;;25.40;68.70;;;;;;5080407;28;20054;-60
2021/06/13 00:25:52;;;;;;;18.20;16.40;;;25.50;68.80;;;;;;5079983;28;20028;-60
2021/06/13 00:28:18;;;;;;;17.63;15.88;;;25.50;68.80;;;;;;5082065;28;20028;-60
2021/06/13 00:30:45;;;;;;;18.05;16.17;;;25.40;68.80;;;;;;5080491;28;20107;-61
2021/06/13 00:33:10;;;;;;;17.52;15.82;;;25.40;68.70;;;;;;5080365;28;20016;-61
2021/06/13 00:35:36;;;;;;;16.88;15.10;;;25.40;68.70;;;;;;5081747;28;20071;-61
2021/06/13 00:38:04;;;;;;;15.40;13.90;;;25.40;68.50;;;;;;5079791;28;20025;-61
2021/06/13 00:40:30;;;;;;;17.02;15.32;;;25.40;68.40;;;;;;5080343;28;20040;-62
2021/06/13 00:42:56;;;;;;;15.27;13.88;;;25.40;68.50;;;;;;5081419;28;20838;-64
2021/06/13 00:45:23;;;;;;;16.38;14.65;;;25.40;68.40;;;;;;5081454;28;20025;-65
2021/06/13 00:47:49;;;;;;;16.50;14.90;;;25.50;68.30;;;;;;5078027;28;20021;-66
2021/06/13 00:50:25;;;;;;;17.90;16.25;;;25.50;68.20;;;;;;5081089;28;20027;-64
2021/06/13 00:52:51;;;;;;;19.20;17.48;;;25.50;68.20;;;;;;5079446;28;20020;-64
2021/06/13 00:55:16;;;;;;;23.88;20.08;;;25.50;68.20;;;;;;5079326;28;20046;-65
2021/06/13 00:57:42;;;;;;;16.80;15.20;;;25.50;68.10;;;;;;5081172;28;20493;-64
2021/06/13 01:00:09;;;;;;;17.58;15.98;;;25.50;68.20;;;;;;5079625;28;20466;-67
2021/06/13 01:02:34;;;;;;;16.50;14.90;;;25.50;68.10;;;;;;5078419;28;20025;-66
2021/06/13 01:05:00;;;;;;;17.05;15.38;;;25.60;68.10;;;;;;5070020;28;20035;-66
2021/06/13 01:07:39;;;;;;;17.05;15.27;;;25.60;68.20;;;;;;5070059;28;20111;-66
2021/06/13 01:10:10;;;;;;;16.30;14.73;;;25.60;68.30;;;;;;5071345;28;20029;-67
2021/06/13 01:12:54;;;;;;;17.20;15.65;;;25.60;68.30;;;;;;5074662;28;20071;-66
2021/06/13 01:15:26;;;;;;;17.02;15.40;;;25.60;68.30;;;;;;5072991;28;20039;-66
2021/06/13 01:18:07;;;;;;;16.98;15.32;;;25.50;67.90;;;;;;5073709;28;20051;-66
2021/06/13 01:20:47;;;;;;;16.92;15.32;;;25.50;67.50;;;;;;5074377;28;20055;-66
2021/06/13 01:23:34;;;;;;;16.90;14.93;;;25.50;66.90;;;;;;5074470;28;20463;-66
2021/06/13 01:26:22;;;;;;;16.98;15.18;;;25.50;66.00;;;;;;5074391;28;20040;-66
2021/06/13 01:29:08;;;;;;;17.85;15.90;;;25.50;65.70;;;;;;5074959;28;20377;-66
2021/06/13 01:31:39;;;;;;;16.42;14.93;;;25.50;65.20;;;;;;5075400;28;20078;-66
2021/06/13 01:34:10;;;;;;;16.60;14.90;;;25.50;65.00;;;;;;5074623;28;20059;-66
2021/06/13 01:36:36;;;;;;;16.25;14.35;;;25.50;64.90;;;;;;5074804;28;20066;-67
2021/06/13 01:39:06;;;;;;;17.48;15.63;;;25.50;64.70;;;;;;5074823;28;20063;-66
2021/06/13 01:41:34;;;;;;;17.05;15.40;;;25.50;64.60;;;;;;5074620;28;20024;-66
2021/06/13 01:44:01;;;;;;;16.30;14.50;;;25.50;64.60;;;;;;5074606;28;20429;-67
2021/06/13 01:46:30;;;;;;;15.38;13.88;;;25.50;64.50;;;;;;5073393;28;20032;-66
2021/06/13 01:48:56;;;;;;;15.43;13.90;;;25.50;64.50;;;;;;5074418;28;20398;-66
2021/06/13 01:51:23;;;;;;;16.13;14.43;;;25.50;64.60;;;;;;5074320;28;20033;-66
2021/06/13 01:53:50;;;;;;;16.02;14.50;;;25.50;64.80;;;;;;5074556;28;20025;-66
2021/06/13 01:56:17;;;;;;;16.67;15.07;;;25.50;64.80;;;;;;5074322;28;20093;-66
2021/06/13 01:58:45;;;;;;;25.05;15.27;;;25.50;64.90;;;;;;5074315;28;20039;-66
2021/06/13 02:01:13;;;;;;;16.45;14.77;;;25.50;65.00;;;;;;5074080;28;20075;-67
2021/06/13 02:03:44;;;;;;;15.02;13.65;;;25.50;65.00;;;;;;5074318;28;20478;-66
2021/06/13 02:06:11;;;;;;;15.10;13.77;;;25.50;65.10;;;;;;5074186;28;20031;-66
2021/06/13 02:08:38;;;;;;;16.45;14.75;;;25.50;65.20;;;;;;5073031;28;20115;-67
2021/06/13 02:11:08;;;;;;;15.13;13.55;;;25.50;65.20;;;;;;5072688;28;20474;-66
2021/06/13 02:13:35;;;;;;;14.30;13.00;;;25.50;65.30;;;;;;5074350;28;20025;-66
2021/06/13 02:16:03;;;;;;;15.50;13.93;;;25.50;65.30;;;;;;5073966;28;20093;-66
2021/06/13 02:18:30;;;;;;;15.80;14.20;;;25.50;65.40;;;;;;5073445;28;20024;-66
2021/06/13 02:21:00;;;;;;;15.95;14.35;;;25.50;65.40;;;;;;5073633;28;20032;-67
2021/06/13 02:23:28;;;;;;;15.50;14.02;;;25.50;65.40;;;;;;5074093;28;20572;-66
2021/06/13 02:25:54;;;;;;;15.30;13.80;;;25.50;65.40;;;;;;5073890;28;20029;-67
2021/06/13 02:28:22;;;;;;;15.18;13.75;;;25.50;65.40;;;;;;5073631;28;20025;-66
2021/06/13 02:30:51;;;;;;;15.07;13.65;;;25.50;65.40;;;;;;5073817;28;20029;-66
2021/06/13 02:33:18;;;;;;;15.68;14.13;;;25.50;65.40;;;;;;5073300;28;20024;-66
2021/06/13 02:35:48;;;;;;;14.70;13.30;;;25.50;65.50;;;;;;5073905;28;20035;-66
2021/06/13 02:38:16;;;;;;;16.20;14.73;;;25.50;65.50;;;;;;5073456;28;20021;-67
2021/06/13 02:40:42;;;;;;;14.88;13.48;;;25.50;65.60;;;;;;5073565;28;20044;-66
2021/06/13 02:43:08;;;;;;;15.80;14.13;;;25.50;65.50;;;;;;5072418;28;20028;-67
2021/06/13 02:45:34;;;;;;;15.90;14.50;;;25.50;65.50;;;;;;5074424;28;20075;-66
2021/06/13 02:47:59;;;;;;;16.20;14.23;;;25.50;65.50;;;;;;5073734;28;20021;-66
2021/06/13 02:50:26;;;;;;;16.48;14.77;;;25.50;65.50;;;;;;5074105;28;20032;-66
2021/06/13 02:53:25;;;;;;;16.15;14.75;;;25.50;65.60;;;;;;5073249;28;20543;-66
2021/06/13 02:56:28;;;;;;;14.50;13.18;;;25.50;65.60;;;;;;5073256;28;20482;-66
2021/06/13 02:58:54;;;;;;;15.27;13.85;;;25.50;65.60;;;;;;5072917;28;20036;-66
2021/06/13 03:01:22;;;;;;;15.10;13.60;;;25.50;65.60;;;;;;5073175;28;20029;-66
2021/06/13 03:03:48;;;;;;;15.35;13.85;;;25.50;65.70;;;;;;5072922;28;20029;-66
2021/06/13 03:06:19;;;;;;;16.30;14.70;;;25.50;65.70;;;;;;5073084;28;20032;-66
2021/06/13 03:08:47;;;;;;;15.32;13.82;;;25.50;65.70;;;;;;5072789;28;20095;-66
2021/06/13 03:11:14;;;;;;;15.40;13.88;;;25.50;65.70;;;;;;5072798;28;20540;-66
2021/06/13 03:13:42;;;;;;;15.48;13.98;;;25.50;65.80;;;;;;5072976;28;20123;-66
2021/06/13 03:16:09;;;;;;;16.10;14.60;;;25.50;65.70;;;;;;5072710;28;20496;-66
2021/06/13 03:18:36;;;;;;;14.75;13.25;;;25.50;65.70;;;;;;5072705;28;20173;-66
2021/06/13 03:21:04;;;;;;;15.30;13.90;;;25.50;65.70;;;;;;5072803;28;20032;-66
2021/06/13 03:23:32;;;;;;;15.27;13.88;;;25.50;65.70;;;;;;5071748;28;20025;-67
2021/06/13 03:26:01;;;;;;;15.00;13.60;;;25.50;65.70;;;;;;5072896;28;20365;-66
2021/06/13 03:28:28;;;;;;;15.88;14.38;;;25.50;65.70;;;;;;5073043;28;20025;-66
2021/06/13 03:30:54;;;;;;;15.30;13.90;;;25.50;65.70;;;;;;5072449;28;20031;-66
2021/06/13 03:33:21;;;;;;;15.25;13.75;;;25.50;65.80;;;;;;5072421;28;20031;-67
2021/06/13 03:35:48;;;;;;;15.35;13.85;;;25.50;65.80;;;;;;5072220;28;20546;-66
2021/06/13 03:38:15;;;;;;;16.10;14.60;;;25.50;65.80;;;;;;5072775;28;20031;-66
2021/06/13 03:40:42;;;;;;;14.32;12.93;;;25.50;65.80;;;;;;5072448;28;20072;-66
2021/06/13 03:43:08;;;;;;;16.20;14.60;;;25.50;65.80;;;;;;5072570;28;20035;-66
2021/06/13 03:45:34;;;;;;;14.70;13.30;;;25.50;65.80;;;;;;5072159;28;20467;-66
2021/06/13 03:48:01;;;;;;;15.30;13.90;;;25.40;65.70;;;;;;5072612;28;20036;-66
2021/06/13 03:50:27;;;;;;;15.05;13.57;;;25.50;65.80;;;;;;5072414;28;20122;-67
2021/06/13 03:52:53;;;;;;;15.38;13.98;;;25.40;65.70;;;;;;5072220;28;20033;-66
2021/06/13 03:55:19;;;;;;;14.63;13.32;;;25.40;65.70;;;;;;5072412;28;20044;-66
2021/06/13 03:57:50;;;;;;;16.25;14.75;;;25.40;65.70;;;;;;5072420;28;20028;-66
2021/06/13 04:00:17;;;;;;;13.82;12.63;;;25.50;65.80;;;;;;5072300;28;20029;-67
2021/06/13 04:02:46;;;;;;;15.00;13.63;;;25.50;65.80;;;;;;5071755;28;20079;-66
2021/06/13 04:05:15;;;;;;;14.63;13.23;;;25.50;65.80;;;;;;5072398;28;20061;-67
2021/06/13 04:07:42;;;;;;;14.93;13.57;;;25.50;65.80;;;;;;5072130;28;20025;-66
2021/06/13 04:10:09;;;;;;;14.95;13.55;;;25.50;65.80;;;;;;5072152;28;20029;-66
2021/06/13 04:12:36;;;;;;;14.88;13.45;;;25.50;65.80;;;;;;5072019;28;20028;-66
2021/06/13 04:15:03;;;;;;;14.65;13.25;;;25.50;65.70;;;;;;5072159;28;20039;-67
2021/06/13 04:17:30;;;;;;;15.05;13.55;;;25.50;65.80;;;;;;5071588;28;20024;-67
2021/06/13 04:19:56;;;;;;;15.60;14.10;;;25.50;65.70;;;;;;5072336;28;20051;-67
2021/06/13 04:22:22;;;;;;;15.73;13.73;;;25.40;65.70;;;;;;5072036;28;20029;-67
2021/06/13 04:24:49;;;;;;;14.73;13.32;;;25.40;65.70;;;;;;5071977;28;20021;-66
2021/06/13 04:27:19;;;;;;;15.18;13.68;;;25.40;65.70;;;;;;5072020;28;20082;-66
2021/06/13 04:29:45;;;;;;;14.30;12.95;;;25.40;65.70;;;;;;5072073;28;20024;-66
2021/06/13 04:32:11;;;;;;;14.30;12.90;;;25.40;65.70;;;;;;5071867;28;20056;-66
2021/06/13 04:34:39;;;;;;;14.55;13.15;;;25.50;65.70;;;;;;5071973;28;20497;-66
2021/06/13 04:37:06;;;;;;;14.82;13.43;;;25.50;65.70;;;;;;5072150;28;20024;-68
2021/06/13 04:39:32;;;;;;;14.85;13.35;;;25.40;65.70;;;;;;5071992;28;20055;-67
2021/06/13 04:41:57;;;;;;;15.05;13.63;;;25.40;65.70;;;;;;5071855;28;20024;-66
2021/06/13 04:44:23;;;;;;;16.33;14.77;;;25.40;65.70;;;;;;5072012;28;20048;-66
2021/06/13 04:46:49;;;;;;;14.48;13.10;;;25.50;65.70;;;;;;5075671;28;20032;-67
2021/06/13 04:49:14;;;;;;;15.25;13.85;;;25.40;65.70;;;;;;5075150;28;20029;-66
2021/06/13 04:51:44;;;;;;;14.00;12.60;;;25.40;65.70;;;;;;5075742;28;20094;-66
2021/06/13 04:54:18;;;;;;;15.13;13.63;;;25.40;65.70;;;;;;5075438;28;20382;-65
2021/06/13 04:56:57;;;;;;;14.68;13.18;;;25.40;65.70;;;;;;5075646;28;20044;-66
2021/06/13 04:59:23;;;;;;;15.20;13.80;;;25.40;65.70;;;;;;5075476;28;20033;-66
2021/06/13 05:01:49;;;;;;;13.98;12.57;;;25.40;65.60;;;;;;5075591;28;20627;-66
2021/06/13 05:04:15;;;;;;;13.82;12.50;;;25.40;65.60;;;;;;5075319;28;20020;-66
2021/06/13 05:06:45;;;;;;;14.88;13.40;;;25.40;65.60;;;;;;5075648;28;20028;-65
2021/06/13 05:09:11;;;;;;;14.90;13.50;;;25.40;65.60;;;;;;5075165;28;20021;-65
2021/06/13 05:11:37;;;;;;;13.52;12.23;;;25.40;65.70;;;;;;5075268;28;20058;-66
2021/06/13 05:14:03;;;;;;;14.63;13.13;;;25.40;65.60;;;;;;5075317;28;20118;-66
2021/06/13 05:16:29;;;;;;;14.15;12.75;;;25.40;65.60;;;;;;5075243;28;20032;-66
2021/06/13 05:18:55;;;;;;;14.57;13.00;;;25.40;65.60;;;;;;5075110;28;20153;-66
2021/06/13 05:21:20;;;;;;;13.57;12.18;;;25.40;65.50;;;;;;5075043;28;20025;-66
2021/06/13 05:23:46;;;;;;;14.65;13.30;;;25.40;65.60;;;;;;5075112;28;20103;-66
2021/06/13 05:26:12;;;;;;;14.95;13.52;;;25.40;65.60;;;;;;5074560;28;20025;-66
2021/06/13 05:28:38;;;;;;;14.18;12.88;;;25.40;65.60;;;;;;5075194;28;20165;-66
2021/06/13 05:31:03;;;;;;;13.63;12.32;;;25.40;65.60;;;;;;5074599;28;20081;-66
2021/06/13 05:33:29;;;;;;;13.27;12.02;;;25.40;65.60;;;;;;5075023;28;20036;-66
2021/06/13 05:35:55;;;;;;;13.60;12.40;;;25.40;65.60;;;;;;5074532;28;20094;-66
2021/06/13 05:38:21;;;;;;;13.95;12.73;;;25.40;65.60;;;;;;5074757;28;20070;-66
2021/06/13 05:40:49;;;;;;;14.45;13.05;;;25.40;65.60;;;;;;5074749;28;20083;-66
2021/06/13 05:43:14;;;;;;;14.85;13.45;;;25.40;65.60;;;;;;5074790;28;20043;-66
2021/06/13 05:45:41;;;;;;;14.00;12.48;;;25.40;65.60;;;;;;5074917;28;20028;-65
2021/06/13 05:48:07;;;;;;;14.23;12.90;;;25.40;65.60;;;;;;5074643;28;20033;-66
2021/06/13 05:50:33;;;;;;;13.77;12.48;;;25.40;65.60;;;;;;5074678;28;20536;-66
2021/06/13 05:53:00;;;;;;;14.68;13.30;;;25.40;65.70;;;;;;5074410;28;20044;-66
2021/06/13 05:55:26;;;;;;;14.23;12.82;;;25.40;65.60;;;;;;5073869;28;20071;-66
2021/06/13 05:57:52;;;;;;;13.30;12.10;;;25.40;65.70;;;;;;5073494;28;20024;-66
2021/06/13 06:00:20;;;;;;;13.18;11.98;;;25.40;65.70;;;;;;5074310;28;20032;-66
2021/06/13 06:02:47;;;;;;;13.25;12.02;;;25.40;65.70;;;;;;5074307;28;20024;-66
2021/06/13 06:05:14;;;;;;;14.32;12.98;;;25.40;65.60;;;;;;5074313;28;20029;-66
2021/06/13 06:07:40;;;;;;;12.93;11.73;;;25.40;65.70;;;;;;5074114;28;20129;-66
2021/06/13 06:10:08;;;;;;;14.48;13.05;;;25.40;65.70;;;;;;5073969;28;20035;-66
2021/06/13 06:12:34;;;;;;;14.40;13.10;;;25.40;65.70;;;;;;5074254;28;20029;-66
2021/06/13 06:15:00;;;;;;;13.45;12.15;;;25.40;65.70;;;;;;5074128;28;20037;-67
2021/06/13 06:17:45;;;;;;;14.15;12.85;;;25.40;65.70;;;;;;5073850;28;20428;-66
2021/06/13 06:20:12;;;;;;;13.52;12.23;;;25.40;65.70;;;;;;5074083;28;20078;-66
2021/06/13 06:22:38;;;;;;;13.90;12.50;;;25.40;65.60;;;;;;5073670;28;20031;-66
2021/06/13 06:25:06;;;;;;;14.98;13.50;;;25.40;65.60;;;;;;5074512;28;20032;-66
2021/06/13 06:27:32;;;;;;;13.20;12.00;;;25.40;65.60;;;;;;5073612;28;20028;-66
2021/06/13 06:29:57;;;;;;;13.75;12.45;;;25.40;65.70;;;;;;5073929;28;20025;-66
2021/06/13 06:32:23;;;;;;;14.07;12.75;;;25.40;65.70;;;;;;5073811;28;20394;-66
2021/06/13 06:34:49;;;;;;;14.18;12.88;;;25.40;65.70;;;;;;5073595;28;20074;-66
2021/06/13 06:37:15;;;;;;;13.02;11.73;;;25.40;65.60;;;;;;5073338;28;20087;-65
2021/06/13 06:39:40;;;;;;;13.35;11.95;;;25.40;65.70;;;;;;5073397;28;20494;-66
2021/06/13 06:42:06;;;;;;;14.98;13.68;;;25.40;65.60;;;;;;5072286;28;20128;-66
2021/06/13 06:44:32;;;;;;;14.23;12.95;;;25.40;65.60;;;;;;5073257;28;20425;-66
2021/06/13 06:47:02;;;;;;;14.00;12.73;;;25.40;65.60;;;;;;5073255;28;20033;-66
2021/06/13 06:49:29;;;;;;;13.63;12.35;;;25.40;65.60;;;;;;5072966;28;20067;-66
2021/06/13 06:51:55;;;;;;;13.38;12.10;;;25.40;65.60;;;;;;5072186;28;20036;-66
2021/06/13 06:54:21;;;;;;;14.05;12.73;;;25.40;65.60;;;;;;5073221;28;20036;-66
2021/06/13 06:56:46;;;;;;;13.73;12.38;;;25.40;65.60;;;;;;5073298;28;20041;-65
2021/06/13 06:59:12;;;;;;;14.70;13.30;;;25.40;65.60;;;;;;5073034;28;20028;-66
2021/06/13 07:01:39;;;;;;;14.07;12.77;;;25.40;65.60;;;;;;5073558;28;20036;-66
2021/06/13 07:04:04;;;;;;;13.82;12.55;;;25.40;65.60;;;;;;5072822;28;20032;-65
2021/06/13 07:06:30;;;;;;;13.75;12.48;;;25.40;65.60;;;;;;5072845;28;20032;-66
2021/06/13 07:08:56;;;;;;;14.40;13.00;;;25.40;65.50;;;;;;5072511;28;20028;-65
2021/06/13 07:11:21;;;;;;;13.93;12.55;;;25.40;65.50;;;;;;5072718;28;20025;-66
2021/06/13 07:13:47;;;;;;;13.50;12.20;;;25.40;65.50;;;;;;5073078;28;20025;-65
2021/06/13 07:16:13;;;;;;;13.18;11.95;;;25.40;65.50;;;;;;5071962;28;20033;-66
2021/06/13 07:18:39;;;;;;;13.77;12.48;;;25.40;65.50;;;;;;5072433;28;20028;-65
2021/06/13 07:21:05;;;;;;;13.90;12.50;;;25.40;65.50;;;;;;5072790;28;20105;-66
2021/06/13 07:23:31;;;;;;;13.70;12.40;;;25.40;65.40;;;;;;5072971;28;20016;-66
2021/06/13 07:25:56;;;;;;;13.93;12.63;;;25.40;65.50;;;;;;5072791;28;20394;-66
2021/06/13 07:28:23;;;;;;;13.52;12.18;;;25.40;65.40;;;;;;5072690;28;20538;-66
2021/06/13 07:30:49;;;;;;;13.93;12.52;;;25.40;65.50;;;;;;5072396;28;20378;-65
2021/06/13 07:33:15;;;;;;;14.18;12.93;;;25.40;65.50;;;;;;5072606;28;20025;-66
2021/06/13 07:35:41;;;;;;;13.80;12.40;;;25.40;65.40;;;;;;5072113;28;20039;-66
2021/06/13 07:38:07;;;;;;;13.90;12.60;;;25.40;65.40;;;;;;5072766;28;20036;-68
2021/06/13 07:40:33;;;;;;;13.20;11.82;;;25.40;65.40;;;;;;5072233;28;20040;-67
2021/06/13 07:42:59;;;;;;;13.23;11.93;;;25.40;65.40;;;;;;5072835;28;20032;-65
2021/06/13 07:45:25;;;;;;;13.93;12.38;;;25.40;65.40;;;;;;5072569;28;20035;-65
2021/06/13 07:47:52;;;;;;;13.98;12.38;;;25.40;65.40;;;;;;5071884;28;20033;-65
2021/06/13 07:50:19;;;;;;;13.55;12.15;;;25.40;65.30;;;;;;5072273;28;20037;-65
2021/06/13 07:52:47;;;;;;;13.00;11.80;;;25.40;65.30;;;;;;5072299;28;20103;-65
2021/06/13 07:55:15;;;;;;;13.43;12.13;;;25.40;65.30;;;;;;5072352;28;20035;-65
2021/06/13 07:57:45;;;;;;;13.80;12.50;;;25.40;65.30;;;;;;5072006;28;20363;-65
2021/06/13 08:00:14;;;;;;;13.13;11.93;;;25.40;65.20;;;;;;5072414;28;20037;-66
2021/06/13 08:02:40;;;;;;;13.18;11.98;;;25.40;65.20;;;;;;5071947;28;20516;-65
2021/06/13 08:05:10;;;;;;;13.35;12.05;;;25.40;65.20;;;;;;5072417;28;20029;-65
2021/06/13 08:07:36;;;;;;;13.63;12.32;;;25.40;65.20;;;;;;5072110;28;20040;-65
2021/06/13 08:10:06;;;;;;;13.70;12.40;;;25.40;65.20;;;;;;5072149;28;20355;-65
2021/06/13 08:12:33;;;;;;;12.98;11.65;;;25.40;65.20;;;;;;5071984;28;20358;-65
2021/06/13 08:14:59;;;;;;;13.63;12.27;;;25.40;65.20;;;;;;5071951;28;20553;-65
2021/06/13 08:17:25;;;;;;;12.30;11.20;;;25.40;66.00;;;;;;5071486;28;20105;-65
2021/06/13 08:19:52;;;;;;;13.52;12.23;;;25.40;65.20;;;;;;5073710;28;20021;-65
2021/06/13 08:22:17;;;;;;;12.82;11.57;;;25.40;65.20;;;;;;5076497;28;20017;-65
2021/06/13 08:24:43;;;;;;;13.10;11.85;;;25.40;65.20;;;;;;5076362;28;20020;-65
2021/06/13 08:27:09;;;;;;;12.18;11.07;;;25.40;65.20;;;;;;5075897;28;20359;-67
2021/06/13 08:29:34;;;;;;;13.02;11.82;;;25.40;65.20;;;;;;5075789;28;20491;-66
2021/06/13 08:32:00;;;;;;;12.70;11.48;;;25.40;65.20;;;;;;5076097;28;20351;-66
2021/06/13 08:34:26;;;;;;;13.48;12.18;;;25.40;65.20;;;;;;5075983;28;20029;-66
2021/06/13 08:36:53;;;;;;;13.43;12.13;;;25.40;65.10;;;;;;5075997;28;20047;-67
2021/06/13 08:39:18;;;;;;;13.18;11.95;;;25.40;65.10;;;;;;5075773;28;20163;-66
2021/06/13 08:41:44;;;;;;;13.40;12.10;;;25.40;65.10;;;;;;5075822;28;20108;-67
2021/06/13 08:44:10;;;;;;;13.02;11.82;;;25.40;65.10;;;;;;5075418;28;20024;-66
2021/06/13 08:46:40;;;;;;;12.95;11.75;;;25.40;65.20;;;;;;5075590;28;20032;-66
2021/06/13 08:49:05;;;;;;;11.75;10.60;;;25.40;65.00;;;;;;5075274;28;20428;-66
2021/06/13 08:51:32;;;;;;;13.48;12.18;;;25.40;64.20;;;;;;5075848;28;20033;-66
2021/06/13 08:53:58;;;;;;;13.10;11.80;;;25.30;63.40;;;;;;5075568;28;20060;-67
2021/06/13 08:56:24;;;;;;;12.27;11.10;;;25.40;63.20;;;;;;5075520;28;20430;-69
2021/06/13 08:58:51;;;;;;;12.27;11.18;;;25.40;63.10;;;;;;5075477;28;20032;-69
2021/06/13 09:01:17;;;;;;;12.40;11.15;;;25.40;63.30;;;;;;5074046;28;20377;-73
2021/06/13 09:03:43;;;;;;;13.10;11.90;;;25.50;63.60;;;;;;5075623;28;20107;-67
2021/06/13 09:06:10;;;;;;;12.55;11.13;;;25.50;63.50;;;;;;5075146;28;20432;-67
2021/06/13 09:08:36;;;;;;;11.90;10.73;;;25.50;64.00;;;;;;5075336;28;20029;-76
2021/06/13 09:11:03;;;;;;;13.18;11.93;;;25.50;63.30;;;;;;5075151;28;20099;-67
2021/06/13 09:13:30;;;;;;;11.45;10.35;;;25.50;63.20;;;;;;5075042;28;20033;-66
2021/06/13 09:15:59;;;;;;;11.48;10.27;;;25.60;62.90;;;;;;5075094;28;20039;-67
2021/06/13 09:18:42;;;;;;;11.02;9.90;;;25.60;62.60;;;;;;5075048;28;20145;-67
2021/06/13 09:21:25;;;;;;;12.70;10.07;;;25.50;62.30;;;;;;5075092;28;20025;-67
2021/06/13 09:23:51;;;;;;;14.38;11.55;;;25.60;62.30;;;;;;5074905;28;20016;-69
2021/06/13 09:26:19;;;;;;;28.48;25.50;;;25.60;62.30;;;;;;5074985;28;20108;-69
2021/06/13 09:28:49;;;;;;;32.67;29.15;;;25.60;62.20;;;;;;5075090;28;20059;-70
2021/06/13 09:31:18;;;;;;;39.25;33.05;;;25.60;62.30;;;;;;5074413;28;20024;-68
2021/06/13 09:33:45;;;;;;;57.15;50.00;;;25.60;62.10;;;;;;5074901;28;20031;-68
2021/06/13 09:36:15;;;;;;;54.67;48.08;;;25.60;62.20;;;;;;5073149;28;20043;-69
2021/06/13 09:38:43;;;;;;;54.63;45.78;;;25.60;62.30;;;;;;5074411;28;20067;-68
2021/06/13 09:41:15;;;;;;;59.53;50.88;;;25.60;62.40;;;;;;5075104;28;20047;-68
2021/06/13 09:44:08;;;;;;;70.85;61.10;;;25.60;62.40;;;;;;5074816;28;20025;-68
2021/06/13 09:46:36;;;;;;;73.28;64.05;;;25.60;62.30;;;;;;5074075;28;20078;-68
2021/06/13 09:49:06;;;;;;;62.40;55.55;;;25.60;62.20;;;;;;5072810;28;20360;-67
2021/06/13 09:51:33;;;;;;;;;;;25.60;62.20;;;;;;5074898;28;20025;-68
2021/06/13 09:54:04;;;;;;;44.42;39.00;;;25.60;62.10;;;;;;5074749;28;19904;-67
2021/06/13 09:56:34;;;;;;;40.92;34.88;;;25.60;62.10;;;;;;5072930;28;20119;-67
2021/06/13 09:59:05;;;;;;;32.22;28.73;;;25.60;62.10;;;;;;5074409;28;20064;-67
2021/06/13 10:01:43;;;;;;;26.27;23.05;;;25.60;62.10;;;;;;5074140;28;20025;-67
2021/06/13 10:04:18;;;;;;;24.58;20.30;;;25.60;62.00;;;;;;5074694;28;20545;-68
2021/06/13 10:06:46;;;;;;;21.73;19.45;;;25.70;62.00;;;;;;5074220;28;20031;-68
2021/06/13 10:09:13;;;;;;;21.13;18.92;;;25.70;62.10;;;;;;5074392;28;20025;-68
2021/06/13 10:11:40;;;;;;;17.15;15.15;;;25.70;62.10;;;;;;5074163;28;20021;-69
2021/06/13 10:14:10;;;;;;;17.05;14.32;;;25.70;62.30;;;;;;5073886;28;20024;-68
2021/06/13 10:16:41;;;;;;;16.20;13.40;;;25.70;62.30;;;;;;5074288;28;20123;-68
2021/06/13 10:19:22;;;;;;;14.90;12.20;;;25.70;62.30;;;;;;5074109;28;20108;-68
2021/06/13 10:21:50;;;;;;;12.35;11.15;;;25.60;62.40;;;;;;5073968;28;20028;-68
2021/06/13 10:24:18;;;;;;;12.75;11.52;;;25.70;62.60;;;;;;5073503;28;20020;-68
2021/06/13 10:26:58;;;;;;;12.88;11.57;;;25.70;62.60;;;;;;5073756;28;20378;-69
2021/06/13 10:29:26;;;;;;;12.33;11.10;;;25.70;62.60;;;;;;5073859;28;20024;-69
2021/06/13 10:31:55;;;;;;;12.68;11.38;;;25.70;62.60;;;;;;5072903;28;20744;-68
2021/06/13 10:34:22;;;;;;;12.10;10.85;;;25.70;62.60;;;;;;5073377;28;20457;-68
2021/06/13 10:36:48;;;;;;;14.13;11.40;;;25.70;62.50;;;;;;5073407;28;20116;-68
2021/06/13 10:39:17;;;;;;;12.73;11.48;;;25.70;62.50;;;;;;5073400;28;20048;-68
2021/06/13 10:41:43;;;;;;;11.77;10.68;;;25.70;62.30;;;;;;5073653;28;20032;-68
2021/06/13 10:44:11;;;;;;;12.02;10.30;;;25.70;62.20;;;;;;5072972;28;20146;-69
2021/06/13 10:46:45;;;;;;;12.00;9.90;;;25.70;62.20;;;;;;5073368;28;20467;-69
2021/06/13 10:49:30;;;;;;;11.52;9.85;;;25.70;62.20;;;;;;5072945;28;20471;-68
2021/06/13 10:52:06;;;;;;;12.18;10.93;;;25.70;62.20;;;;;;5073478;28;20020;-69
2021/06/13 10:54:50;;;;;;;11.93;10.75;;;25.70;62.10;;;;;;5073315;28;20021;-68
2021/06/13 10:57:16;;;;;;;10.63;9.55;;;25.70;62.20;;;;;;5073384;28;20029;-68
2021/06/13 10:59:50;;;;;;;12.38;11.02;;;25.70;62.20;;;;;;5072918;28;20029;-68
2021/06/13 11:02:19;;;;;;;11.90;10.40;;;25.70;62.10;;;;;;5073403;28;20029;-69
2021/06/13 11:05:01;;;;;;;11.20;10.10;;;25.70;62.10;;;;;;5073184;28;20051;-68
2021/06/13 11:07:35;;;;;;;11.45;9.98;;;25.70;62.10;;;;;;5073006;28;20024;-69
2021/06/13 11:10:13;;;;;;;12.57;11.27;;;25.80;62.20;;;;;;5072945;28;20025;-68
2021/06/13 11:13:00;;;;;;;11.13;10.02;;;25.80;62.30;;;;;;5072079;28;20112;-69
2021/06/13 11:15:30;;;;;;;11.30;10.02;;;25.80;62.30;;;;;;5072863;28;20481;-69
2021/06/13 11:18:06;;;;;;;11.15;10.00;;;25.80;62.30;;;;;;5072887;28;20107;-68
2021/06/13 11:23:13;;;;;;;11.32;10.27;;;25.80;62.20;;;;;;5072871;28;20060;-68
2021/06/13 11:25:40;;;;;;;11.88;9.98;;;25.80;62.20;;;;;;5072768;28;20024;-68
2021/06/13 11:28:12;;;;;;;11.07;9.85;;;25.80;62.20;;;;;;5072664;28;20505;-68
2021/06/13 11:30:44;;;;;;;12.45;10.30;;;25.80;62.20;;;;;;5072671;28;20115;-67
2021/06/13 11:33:12;;;;;;;11.23;10.13;;;25.80;62.20;;;;;;5072485;28;20032;-68
2021/06/13 11:35:44;;;;;;;11.77;10.00;;;25.80;62.20;;;;;;5072565;28;20089;-68
2021/06/13 11:38:13;;;;;;;11.20;10.00;;;25.80;62.10;;;;;;5072654;28;20021;-68
2021/06/13 11:40:56;;;;;;;10.73;9.63;;;25.70;62.00;;;;;;5072368;28;20045;-68
2021/06/13 11:43:48;;;;;;;12.10;10.90;;;25.80;62.10;;;;;;5072641;28;20047;-68
2021/06/13 11:46:38;;;;;;;10.13;9.23;;;25.80;62.00;;;;;;5071628;28;20094;-67
2021/06/13 11:49:07;;;;;;;11.38;10.10;;;25.80;62.00;;;;;;5072414;28;20028;-68
2021/06/13 11:51:48;;;;;;;12.52;9.65;;;25.80;62.00;;;;;;5072294;28;20033;-68
2021/06/13 11:54:31;;;;;;;10.75;9.73;;;25.80;61.80;;;;;;5072158;28;20065;-68
2021/06/13 11:56:59;;;;;;;10.45;9.43;;;25.80;61.50;;;;;;5072323;28;20063;-68
2021/06/13 11:59:25;;;;;;;10.50;9.45;;;25.80;61.20;;;;;;5072419;28;20029;-69
2021/06/13 12:01:56;;;;;;;10.45;9.48;;;25.80;60.80;;;;;;5072179;28;20033;-68
2021/06/13 12:04:23;;;;;;;9.77;8.88;;;25.90;60.60;;;;;;5072038;28;20032;-68
2021/06/13 12:06:50;;;;;;;9.48;8.48;;;25.80;60.30;;;;;;5072006;28;20017;-68
2021/06/13 12:09:18;;;;;;;9.75;8.75;;;25.80;60.20;;;;;;5072149;28;20474;-68
2021/06/13 12:11:53;;;;;;;10.50;9.50;;;25.90;60.10;;;;;;5072163;28;20029;-68
2021/06/13 12:14:38;;;;;;;10.32;9.32;;;25.80;60.20;;;;;;5072248;28;20028;-69
2021/06/13 12:17:18;;;;;;;10.45;9.45;;;25.90;60.10;;;;;;5071633;28;20029;-68
2021/06/13 12:19:55;;;;;;;10.15;9.13;;;25.90;60.00;;;;;;5072359;28;20389;-70
2021/06/13 12:27:28;;;;;;;10.10;9.07;;;25.90;59.70;;;;;;5071723;28;20415;-68
2021/06/13 12:29:57;;;;;;;9.77;8.82;;;25.90;59.50;;;;;;5072223;28;20024;-68
2021/06/13 12:32:24;;;;;;;9.02;8.02;;;25.90;59.50;;;;;;5071632;28;20364;-69
2021/06/13 12:34:53;;;;;;;11.57;8.52;;;26.00;59.50;;;;;;5071828;28;20478;-68
2021/06/13 12:37:24;;;;;;;11.95;9.32;;;26.00;59.50;;;;;;5071767;28;20041;-68
2021/06/13 12:39:58;;;;;;;11.43;10.00;;;26.00;59.50;;;;;;5071573;28;20375;-68
2021/06/13 12:42:25;;;;;;;14.65;13.15;;;26.00;59.60;;;;;;5072076;28;20035;-69
2021/06/13 12:45:07;;;;;;;21.17;16.67;;;26.00;59.50;;;;;;5071585;28;20442;-69